Time;durP1;ratioP1;P1;durP2;ratioP2;P2;SDS_P1;SDS_P2;PMS_P1;PMS_P2;Temp;Humidity;BMP_temperature;BMP_pressure;BME280_temperature;BME280_humidity;BME280_pressure;Samples;Min_cycle;Max_cycle;Signal;HPM_P1;HPM_P2
2021/12/10 00:01:32;;;;;;;86.38;34.67;;;;;;;;;;6232461;28;20417;-82
2021/12/10 00:04:36;;;;;;;98.35;38.97;;;;;;;;;;6233258;28;20033;-81
2021/12/10 00:07:36;;;;;;;96.43;39.92;;;;;;;;;;6229228;28;20044;-82
2021/12/10 00:10:39;;;;;;;88.15;37.80;;;;;;;;;;6233339;28;20026;-82
2021/12/10 00:13:44;;;;;;;103.03;44.13;;;;;;;;;;6230037;28;20064;-82
2021/12/10 00:16:44;;;;;;;101.25;41.40;;;;;;;;;;6234435;28;20018;-81
2021/12/10 00:19:48;;;;;;;96.80;44.42;;;;;;;;;;6232593;28;20386;-83
2021/12/10 00:22:55;;;;;;;108.68;45.30;;;;;;;;;;6234332;28;20018;-82
2021/12/10 00:25:56;;;;;;;113.95;46.67;;;;;;;;;;6231077;28;20523;-82
2021/12/10 00:29:02;;;;;;;118.90;53.45;;;;;;;;;;6235652;28;20010;-82
2021/12/10 00:32:07;;;;;;;120.30;49.63;;;;;;;;;;6235812;28;20029;-83
2021/12/10 00:35:18;;;;;;;102.97;43.38;;;;;;;;;;6231998;28;20021;-82
2021/12/10 00:38:20;;;;;;;76.32;32.78;;;;;;;;;;6230023;28;20017;-82
2021/12/10 00:41:20;;;;;;;109.72;44.60;;;;;;;;;;6232393;28;20028;-82
2021/12/10 00:44:21;;;;;;;97.13;39.55;;;;;;;;;;6232395;28;20029;-82
2021/12/10 00:47:21;;;;;;;104.55;40.88;;;;;;;;;;6234442;28;20022;-82
2021/12/10 00:50:23;;;;;;;99.53;43.42;;;;;;;;;;6237331;28;20049;-83
2021/12/10 00:53:24;;;;;;;112.93;44.53;;;;;;;;;;6238300;28;20036;-82
2021/12/10 00:56:24;;;;;;;94.75;43.58;;;;;;;;;;6234473;28;20049;-82
2021/12/10 00:59:25;;;;;;;104.35;43.05;;;;;;;;;;6241548;28;20048;-82
2021/12/10 01:02:25;;;;;;;101.43;44.38;;;;;;;;;;6234803;28;20151;-82
2021/12/10 01:05:26;;;;;;;95.50;41.75;;;;;;;;;;6237618;28;20037;-82
2021/12/10 01:08:27;;;;;;;87.72;39.88;;;;;;;;;;6245061;28;20021;-82
2021/12/10 01:11:30;;;;;;;97.47;40.87;;;;;;;;;;6237115;28;20096;-82
2021/12/10 01:15:33;;;;;;;79.05;33.15;;;;;;;;;;6239014;28;20275;-83
2021/12/10 01:27:51;;;;;;;84.18;39.60;;;;;;;;;;6241740;28;20020;-81
2021/12/10 01:30:52;;;;;;;87.60;33.28;;;;;;;;;;6244785;28;20362;-81
2021/12/10 01:33:52;;;;;;;100.20;42.72;;;;;;;;;;6229466;28;20152;-81
2021/12/10 01:36:53;;;;;;;100.35;41.13;;;;;;;;;;6240242;28;20010;-81
2021/12/10 01:39:54;;;;;;;100.03;42.47;;;;;;;;;;6234894;28;20018;-81
2021/12/10 01:43:01;;;;;;;79.85;36.47;;;;;;;;;;6234788;28;20025;-81
2021/12/10 01:46:07;;;;;;;95.85;40.25;;;;;;;;;;6231750;28;20468;-83
2021/12/10 01:49:08;;;;;;;80.88;30.33;;;;;;;;;;6238467;28;20430;-82
2021/12/10 01:52:10;;;;;;;80.95;36.67;;;;;;;;;;6237562;28;20049;-82
2021/12/10 01:55:10;;;;;;;85.18;38.35;;;;;;;;;;6243839;28;20026;-83
2021/12/10 01:58:12;;;;;;;75.93;29.33;;;;;;;;;;6237135;28;20017;-83
2021/12/10 02:01:13;;;;;;;;;;;;;;;;;;6244563;28;20469;-83
2021/12/10 02:04:15;;;;;;;91.80;39.03;;;;;;;;;;6237955;28;20380;-82
2021/12/10 02:07:17;;;;;;;93.03;39.63;;;;;;;;;;6237673;28;20586;-82
2021/12/10 02:10:19;;;;;;;87.47;40.17;;;;;;;;;;6241101;28;20474;-82
2021/12/10 02:13:19;;;;;;;86.32;41.13;;;;;;;;;;6240806;28;20072;-83
2021/12/10 02:16:20;;;;;;;86.63;38.88;;;;;;;;;;6240000;28;20006;-82
2021/12/10 02:19:20;;;;;;;90.63;36.97;;;;;;;;;;6238705;28;20072;-83
2021/12/10 02:22:20;;;;;;;92.05;40.08;;;;;;;;;;6241071;28;20018;-82
2021/12/10 02:25:23;;;;;;;97.90;42.20;;;;;;;;;;6246195;28;20017;-83
2021/12/10 02:28:23;;;;;;;103.10;43.83;;;;;;;;;;6235020;28;20030;-83
2021/12/10 02:31:24;;;;;;;106.25;44.38;;;;;;;;;;6233374;28;20045;-82
2021/12/10 02:34:25;;;;;;;98.10;40.38;;;;;;;;;;6237810;28;20025;-82
2021/12/10 02:37:25;;;;;;;105.43;40.65;;;;;;;;;;6241797;28;20025;-82
2021/12/10 02:40:26;;;;;;;108.53;47.42;;;;;;;;;;6240687;28;20025;-83
2021/12/10 02:43:27;;;;;;;122.93;49.78;;;;;;;;;;6244279;28;20463;-83
2021/12/10 02:46:27;;;;;;;116.70;46.60;;;;;;;;;;6237055;28;20010;-82
2021/12/10 02:49:28;;;;;;;89.80;41.08;;;;;;;;;;6240587;28;20041;-82
2021/12/10 02:52:28;;;;;;;85.65;35.17;;;;;;;;;;6234953;28;20116;-82
2021/12/10 02:55:30;;;;;;;77.75;33.42;;;;;;;;;;6235925;28;20024;-83
2021/12/10 02:58:30;;;;;;;71.20;35.27;;;;;;;;;;6235567;28;20458;-83
2021/12/10 03:01:37;;;;;;;72.70;32.05;;;;;;;;;;6245136;28;20071;-83
2021/12/10 03:04:38;;;;;;;73.55;32.92;;;;;;;;;;6234924;28;20018;-83
2021/12/10 03:07:39;;;;;;;73.97;33.38;;;;;;;;;;6232783;28;20532;-83
2021/12/10 03:10:40;;;;;;;84.47;32.97;;;;;;;;;;6237668;28;20018;-83
2021/12/10 03:13:40;;;;;;;82.35;34.63;;;;;;;;;;6240250;28;20264;-83
2021/12/10 03:16:41;;;;;;;76.95;33.95;;;;;;;;;;6235878;28;20064;-84
2021/12/10 03:19:41;;;;;;;57.97;24.97;;;;;;;;;;6239181;28;20091;-83
2021/12/10 03:22:42;;;;;;;88.90;36.13;;;;;;;;;;6241106;28;20488;-83
2021/12/10 03:25:43;;;;;;;80.68;39.85;;;;;;;;;;6242431;28;20097;-84
2021/12/10 03:28:44;;;;;;;83.70;37.17;;;;;;;;;;6235617;28;20017;-83
2021/12/10 03:31:44;;;;;;;79.20;34.08;;;;;;;;;;6238092;28;20024;-83
2021/12/10 03:34:45;;;;;;;86.45;37.55;;;;;;;;;;6232560;28;20093;-83
2021/12/10 03:37:46;;;;;;;92.15;40.97;;;;;;;;;;6241207;28;20025;-83
2021/12/10 03:40:46;;;;;;;93.38;37.22;;;;;;;;;;6238013;28;20018;-83
2021/12/10 03:43:47;;;;;;;81.32;35.30;;;;;;;;;;6230789;28;20018;-84
2021/12/10 03:46:48;;;;;;;83.97;37.73;;;;;;;;;;6238141;28;20009;-83
2021/12/10 03:49:49;;;;;;;83.85;35.08;;;;;;;;;;6234258;28;20271;-84
2021/12/10 03:52:49;;;;;;;81.68;37.13;;;;;;;;;;6238157;28;20112;-83
2021/12/10 03:55:50;;;;;;;87.45;39.53;;;;;;;;;;6234944;28;20022;-84
2021/12/10 03:58:51;;;;;;;76.35;37.33;;;;;;;;;;6238003;28;20041;-84
2021/12/10 04:01:53;;;;;;;81.53;34.42;;;;;;;;;;6241422;28;20128;-83
2021/12/10 04:04:53;;;;;;;80.22;37.97;;;;;;;;;;6240787;28;20018;-83
2021/12/10 04:07:54;;;;;;;83.88;40.35;;;;;;;;;;6229977;28;20009;-83
2021/12/10 04:10:54;;;;;;;90.68;39.00;;;;;;;;;;6248383;28;20063;-84
2021/12/10 04:13:55;;;;;;;83.05;38.40;;;;;;;;;;6239174;28;20014;-84
2021/12/10 04:16:57;;;;;;;83.32;33.10;;;;;;;;;;6242545;28;20105;-84
2021/12/10 04:19:57;;;;;;;78.43;35.13;;;;;;;;;;6240352;28;20025;-83
2021/12/10 04:22:58;;;;;;;88.50;35.15;;;;;;;;;;6232407;28;20264;-83
2021/12/10 04:25:59;;;;;;;73.85;33.67;;;;;;;;;;6251065;28;20029;-83
2021/12/10 04:28:59;;;;;;;78.03;33.45;;;;;;;;;;6244527;28;20440;-83
2021/12/10 04:32:00;;;;;;;74.82;35.80;;;;;;;;;;6245231;28;20018;-83
2021/12/10 04:35:00;;;;;;;80.10;34.17;;;;;;;;;;6242690;28;20085;-83
2021/12/10 04:38:01;;;;;;;75.28;35.40;;;;;;;;;;6244784;28;20112;-83
2021/12/10 04:41:03;;;;;;;77.82;35.35;;;;;;;;;;6240542;28;20057;-84
2021/12/10 04:44:03;;;;;;;;;;;;;;;;;;6245468;28;20021;-83
2021/12/10 04:47:03;;;;;;;79.55;38.65;;;;;;;;;;6246466;28;19917;-83
2021/12/10 04:50:05;;;;;;;79.53;34.58;;;;;;;;;;6247911;28;20017;-83
2021/12/10 04:53:07;;;;;;;87.93;39.65;;;;;;;;;;6248460;28;20021;-84
2021/12/10 04:56:07;;;;;;;82.55;35.38;;;;;;;;;;6240254;28;20025;-83
2021/12/10 04:59:08;;;;;;;181.15;70.53;;;;;;;;;;6245565;28;20022;-83
2021/12/10 05:02:10;;;;;;;165.87;70.63;;;;;;;;;;6248441;28;20010;-83
2021/12/10 05:05:11;;;;;;;176.07;73.25;;;;;;;;;;6250116;28;20414;-83
2021/12/10 05:08:12;;;;;;;124.20;55.72;;;;;;;;;;6243445;28;20574;-83
2021/12/10 05:11:13;;;;;;;131.87;56.07;;;;;;;;;;6247366;28;20021;-83
2021/12/10 05:14:15;;;;;;;99.25;42.40;;;;;;;;;;6244732;28;20628;-83
2021/12/10 05:17:15;;;;;;;;;;;;;;;;;;6243866;28;20052;-83
2021/12/10 05:20:21;;;;;;;86.85;41.42;;;;;;;;;;6243202;28;19905;-83
2021/12/10 05:23:21;;;;;;;105.32;43.53;;;;;;;;;;6236840;28;20056;-83
2021/12/10 05:26:22;;;;;;;93.95;43.92;;;;;;;;;;6236948;28;20509;-83
2021/12/10 05:29:22;;;;;;;100.60;45.90;;;;;;;;;;6247828;28;20049;-84
2021/12/10 05:32:22;;;;;;;85.53;37.67;;;;;;;;;;6237108;28;20029;-84
2021/12/10 05:35:23;;;;;;;109.55;47.50;;;;;;;;;;6237031;28;20116;-83
2021/12/10 05:38:24;;;;;;;93.15;39.63;;;;;;;;;;6237345;28;20032;-83
2021/12/10 05:41:24;;;;;;;79.72;35.33;;;;;;;;;;6236148;28;20033;-83
2021/12/10 05:44:25;;;;;;;96.93;45.10;;;;;;;;;;6229284;28;20389;-83
2021/12/10 05:47:25;;;;;;;46.30;19.40;;;;;;;;;;6235545;28;20022;-83
2021/12/10 05:50:26;;;;;;;109.55;43.67;;;;;;;;;;6239297;28;20045;-83
2021/12/10 05:53:27;;;;;;;87.40;39.17;;;;;;;;;;6240410;28;20052;-83
2021/12/10 05:56:27;;;;;;;111.07;45.80;;;;;;;;;;6234892;28;20322;-83
2021/12/10 05:59:27;;;;;;;100.07;43.17;;;;;;;;;;6230027;28;20095;-83
2021/12/10 06:02:28;;;;;;;94.70;39.65;;;;;;;;;;6254170;28;20410;-84
2021/12/10 06:05:28;;;;;;;78.95;32.03;;;;;;;;;;6236177;28;20022;-83
2021/12/10 06:08:29;;;;;;;93.53;39.53;;;;;;;;;;6237873;28;20476;-83
2021/12/10 06:11:29;;;;;;;87.65;34.95;;;;;;;;;;6240759;28;20032;-83
2021/12/10 06:14:30;;;;;;;85.03;34.90;;;;;;;;;;6242970;28;20018;-83
2021/12/10 06:17:30;;;;;;;93.65;39.97;;;;;;;;;;6232463;28;20453;-83
2021/12/10 06:20:32;;;;;;;107.88;46.83;;;;;;;;;;6229441;28;20131;-83
2021/12/10 06:23:33;;;;;;;110.43;43.35;;;;;;;;;;6237268;28;20021;-83
2021/12/10 06:26:33;;;;;;;106.97;40.92;;;;;;;;;;6240647;28;20026;-83
2021/12/10 06:29:36;;;;;;;93.43;46.72;;;;;;;;;;6237607;28;20036;-83
2021/12/10 06:32:36;;;;;;;90.72;38.53;;;;;;;;;;6244050;28;20382;-84
2021/12/10 06:35:37;;;;;;;96.35;42.13;;;;;;;;;;6242643;28;20022;-83
2021/12/10 06:38:37;;;;;;;82.60;35.95;;;;;;;;;;6246109;28;20017;-84
2021/12/10 06:41:38;;;;;;;88.60;39.58;;;;;;;;;;6238290;28;20092;-84
2021/12/10 06:44:38;;;;;;;112.30;47.35;;;;;;;;;;6244748;28;20033;-84
2021/12/10 06:47:40;;;;;;;98.53;45.65;;;;;;;;;;6234500;28;20024;-83
2021/12/10 06:50:46;;;;;;;109.10;48.00;;;;;;;;;;6232621;28;20044;-83
2021/12/10 06:53:46;;;;;;;94.45;44.60;;;;;;;;;;6240403;28;20052;-83
2021/12/10 06:56:47;;;;;;;101.63;45.50;;;;;;;;;;6230206;28;20021;-83
2021/12/10 06:59:47;;;;;;;102.32;46.08;;;;;;;;;;6240108;28;20022;-84
2021/12/10 07:02:47;;;;;;;111.65;49.08;;;;;;;;;;6233558;28;20084;-84
2021/12/10 07:05:49;;;;;;;118.30;57.30;;;;;;;;;;6233970;28;20045;-83
2021/12/10 07:08:49;;;;;;;107.57;51.88;;;;;;;;;;6230525;28;20045;-83
2021/12/10 07:11:50;;;;;;;108.85;49.35;;;;;;;;;;6226126;28;20026;-83
2021/12/10 07:14:50;;;;;;;101.95;48.08;;;;;;;;;;6235557;28;20020;-83
2021/12/10 07:17:51;;;;;;;84.47;41.75;;;;;;;;;;6242210;28;20374;-84
2021/12/10 07:20:52;;;;;;;95.47;44.30;;;;;;;;;;6237136;28;20037;-83
2021/12/10 07:23:53;;;;;;;106.50;45.15;;;;;;;;;;6241791;28;20109;-84
2021/12/10 07:26:55;;;;;;;102.70;47.50;;;;;;;;;;6237396;28;20020;-84
2021/12/10 07:29:55;;;;;;;102.78;46.58;;;;;;;;;;6231461;28;20116;-84
2021/12/10 07:32:56;;;;;;;123.93;54.35;;;;;;;;;;6234716;28;20017;-84
2021/12/10 07:35:56;;;;;;;91.22;42.53;;;;;;;;;;6236663;28;20517;-84
2021/12/10 07:38:57;;;;;;;81.15;38.92;;;;;;;;;;6231531;28;20025;-84
2021/12/10 07:41:59;;;;;;;101.50;48.10;;;;;;;;;;6233336;28;20608;-84
2021/12/10 07:44:59;;;;;;;;;;;;;;;;;;6230224;28;20017;-84
2021/12/10 07:48:03;;;;;;;93.37;43.03;;;;;;;;;;6230005;28;20267;-84
2021/12/10 07:51:10;;;;;;;78.20;41.13;;;;;;;;;;6246668;28;20803;-84
2021/12/10 07:54:10;;;;;;;91.88;42.42;;;;;;;;;;6241226;28;20025;-83
2021/12/10 07:57:11;;;;;;;82.00;42.60;;;;;;;;;;6247859;28;20006;-83
2021/12/10 08:00:13;;;;;;;88.40;46.35;;;;;;;;;;6237766;28;20024;-83
2021/12/10 08:03:14;;;;;;;100.93;47.47;;;;;;;;;;6233429;28;20021;-83
2021/12/10 08:06:15;;;;;;;88.85;41.45;;;;;;;;;;6233534;28;20092;-83
2021/12/10 08:09:15;;;;;;;83.55;41.35;;;;;;;;;;6240088;28;20014;-84
2021/12/10 08:12:16;;;;;;;94.15;47.35;;;;;;;;;;6232068;28;20055;-83
2021/12/10 08:15:16;;;;;;;70.40;34.17;;;;;;;;;;6223232;28;20083;-84
2021/12/10 08:18:17;;;;;;;60.78;29.58;;;;;;;;;;6233315;28;20068;-84
2021/12/10 08:21:17;;;;;;;58.40;30.17;;;;;;;;;;6254221;28;20026;-84
2021/12/10 08:24:18;;;;;;;59.10;30.05;;;;;;;;;;6229445;28;20029;-85
2021/12/10 08:27:18;;;;;;;88.32;39.50;;;;;;;;;;6229582;28;20021;-84
2021/12/10 08:30:20;;;;;;;354.85;128.30;;;;;;;;;;6224726;28;20025;-84
2021/12/10 08:33:20;;;;;;;551.83;222.90;;;;;;;;;;6229979;28;20018;-84
2021/12/10 08:36:22;;;;;;;483.55;186.35;;;;;;;;;;6224064;28;20885;-84
2021/12/10 08:39:22;;;;;;;138.68;55.25;;;;;;;;;;6228351;28;20030;-85
2021/12/10 08:42:23;;;;;;;85.57;38.95;;;;;;;;;;6248432;28;20723;-85
2021/12/10 08:45:24;;;;;;;111.05;44.25;;;;;;;;;;6229024;28;20022;-85
2021/12/10 08:48:25;;;;;;;122.25;46.70;;;;;;;;;;6246100;28;20762;-85
2021/12/10 08:51:29;;;;;;;126.20;49.10;;;;;;;;;;6234859;28;20085;-85
2021/12/10 08:54:30;;;;;;;82.93;37.88;;;;;;;;;;6229293;28;20022;-85
2021/12/10 08:57:30;;;;;;;79.80;36.70;;;;;;;;;;6231367;28;20136;-86
2021/12/10 09:00:31;;;;;;;82.80;45.22;;;;;;;;;;6230070;28;20032;-86
2021/12/10 09:03:32;;;;;;;119.93;59.15;;;;;;;;;;6230664;28;20040;-86
2021/12/10 09:06:34;;;;;;;86.13;39.78;;;;;;;;;;6222890;28;20018;-86
2021/12/10 09:09:36;;;;;;;82.35;42.45;;;;;;;;;;6227220;28;20049;-87
2021/12/10 09:12:36;;;;;;;;;;;;;;;;;;6231628;28;20758;-87
2021/12/10 09:15:37;;;;;;;64.95;35.47;;;;;;;;;;6234968;28;19909;-86
2021/12/10 09:18:39;;;;;;;76.78;38.00;;;;;;;;;;6236850;28;20083;-86
2021/12/10 09:21:41;;;;;;;74.07;37.83;;;;;;;;;;6227799;28;20109;-85
2021/12/10 09:24:42;;;;;;;105.40;41.22;;;;;;;;;;6231450;28;20029;-85
2021/12/10 09:27:43;;;;;;;94.43;46.58;;;;;;;;;;6232638;28;20071;-86
2021/12/10 09:30:46;;;;;;;76.57;40.38;;;;;;;;;;6228482;28;20463;-86
2021/12/10 09:33:47;;;;;;;80.70;40.28;;;;;;;;;;6233579;28;20032;-86
2021/12/10 09:36:48;;;;;;;96.13;44.22;;;;;;;;;;6237240;28;20030;-87
2021/12/10 09:39:49;;;;;;;77.03;37.72;;;;;;;;;;6230180;28;20394;-86
2021/12/10 09:42:49;;;;;;;79.53;44.13;;;;;;;;;;6244510;28;20100;-86
2021/12/10 09:45:52;;;;;;;84.00;42.85;;;;;;;;;;6232196;28;20291;-86
2021/12/10 09:48:52;;;;;;;95.43;48.65;;;;;;;;;;6230955;28;20026;-87
2021/12/10 09:51:55;;;;;;;84.32;43.92;;;;;;;;;;6236304;28;20512;-87
2021/12/10 09:54:57;;;;;;;134.25;54.00;;;;;;;;;;6230999;28;20064;-87
2021/12/10 09:57:57;;;;;;;97.97;45.22;;;;;;;;;;6231609;28;20428;-86
2021/12/10 10:00:59;;;;;;;57.40;27.48;;;;;;;;;;6234035;28;20017;-86
2021/12/10 10:04:01;;;;;;;76.28;37.70;;;;;;;;;;6236771;28;20485;-88
2021/12/10 10:07:05;;;;;;;60.58;32.35;;;;;;;;;;6227801;28;20022;-87
2021/12/10 10:10:08;;;;;;;75.50;35.65;;;;;;;;;;6236127;28;20025;-88
2021/12/10 10:13:10;;;;;;;57.25;31.10;;;;;;;;;;6237434;28;20013;-87
2021/12/10 10:16:10;;;;;;;;;;;;;;;;;;6230673;28;20865;-87
2021/12/10 10:19:12;;;;;;;67.00;35.33;;;;;;;;;;6235323;28;19909;-88
2021/12/10 10:22:19;;;;;;;71.07;36.92;;;;;;;;;;6238681;28;20264;-88
2021/12/10 10:25:22;;;;;;;106.80;51.05;;;;;;;;;;6230084;28;20021;-88
2021/12/10 10:28:23;;;;;;;63.20;31.65;;;;;;;;;;6229412;28;20021;-88
2021/12/10 10:31:23;;;;;;;67.20;35.80;;;;;;;;;;6233440;28;20025;-87
2021/12/10 10:34:25;;;;;;;65.70;32.70;;;;;;;;;;6235090;28;20025;-87
2021/12/10 10:37:25;;;;;;;58.10;29.38;;;;;;;;;;6241478;28;20041;-88
2021/12/10 10:40:29;;;;;;;72.60;36.35;;;;;;;;;;6241065;28;20027;-89
2021/12/10 10:43:30;;;;;;;59.65;28.55;;;;;;;;;;6235764;28;20037;-89
2021/12/10 10:46:30;;;;;;;59.15;30.40;;;;;;;;;;6242437;28;20209;-90
2021/12/10 10:49:30;;;;;;;33.65;19.38;;;;;;;;;;6244361;28;20032;-89
2021/12/10 10:52:33;;;;;;;53.67;25.65;;;;;;;;;;6257423;28;20049;-89
2021/12/10 10:55:36;;;;;;;36.95;17.80;;;;;;;;;;6241357;28;20037;-89
2021/12/10 10:58:38;;;;;;;44.92;23.25;;;;;;;;;;6239483;28;20141;-89
2021/12/10 11:01:59;;;;;;;44.22;24.15;;;;;;;;;;6240927;28;20108;-89
2021/12/10 11:05:08;;;;;;;45.95;23.33;;;;;;;;;;6241519;28;20025;-89
2021/12/10 11:08:08;;;;;;;47.03;21.45;;;;;;;;;;6241361;28;20030;-89
2021/12/10 11:11:17;;;;;;;46.83;24.95;;;;;;;;;;6238024;28;20088;-89
2021/12/10 11:14:25;;;;;;;39.38;20.23;;;;;;;;;;6238358;28;20029;-89
2021/12/10 11:17:26;;;;;;;34.80;20.73;;;;;;;;;;6239911;28;20022;-89
2021/12/10 11:20:28;;;;;;;34.70;18.02;;;;;;;;;;6238387;28;20052;-89
2021/12/10 11:23:31;;;;;;;34.63;16.63;;;;;;;;;;6240516;28;20033;-89
2021/12/10 11:26:41;;;;;;;35.28;17.50;;;;;;;;;;6242936;28;20033;-89
2021/12/10 11:29:55;;;;;;;30.52;15.07;;;;;;;;;;6240315;28;20060;-90
2021/12/10 11:33:03;;;;;;;35.70;17.17;;;;;;;;;;6254363;28;20045;-91
2021/12/10 11:36:06;;;;;;;38.13;21.77;;;;;;;;;;6257870;28;20021;-90
2021/12/10 11:39:06;;;;;;;19.40;12.07;;;;;;;;;;6244715;28;20444;-90
2021/12/10 11:42:25;;;;;;;29.58;16.70;;;;;;;;;;6223071;28;20018;-90
2021/12/10 11:45:33;;;;;;;22.48;14.65;;;;;;;;;;6259510;28;20033;-90
2021/12/10 11:48:38;;;;;;;31.45;14.55;;;;;;;;;;6241370;28;20037;-91
2021/12/10 11:51:47;;;;;;;32.88;18.05;;;;;;;;;;6233818;28;20065;-90
2021/12/10 11:54:51;;;;;;;;;;;;;;;;;;6239694;28;20052;-88
2021/12/10 11:57:53;;;;;;;34.60;16.88;;;;;;;;;;6242583;28;19957;-92
2021/12/10 12:00:54;;;;;;;26.67;13.57;;;;;;;;;;6246227;28;20030;-91
2021/12/10 12:03:54;;;;;;;29.73;13.95;;;;;;;;;;6238809;28;20033;-91
2021/12/10 12:07:13;;;;;;;32.40;13.73;;;;;;;;;;6238584;28;20075;-91
2021/12/10 12:10:24;;;;;;;28.95;14.32;;;;;;;;;;6254825;28;20060;-91
2021/12/10 12:13:39;;;;;;;27.10;15.23;;;;;;;;;;6256110;28;20033;-89
2021/12/10 12:16:39;;;;;;;33.90;16.65;;;;;;;;;;6236898;28;20055;-89
2021/12/10 12:19:41;;;;;;;29.20;16.58;;;;;;;;;;6239597;28;20094;-89
2021/12/10 12:26:03;;;;;;;23.70;10.57;;;;;;;;;;6235459;28;20460;-89
2021/12/10 12:29:14;;;;;;;27.27;11.98;;;;;;;;;;6240140;28;20032;-89
2021/12/10 12:32:20;;;;;;;28.73;13.18;;;;;;;;;;6234168;28;20021;-89
2021/12/10 12:35:24;;;;;;;21.58;10.48;;;;;;;;;;6235412;28;20441;-89
2021/12/10 12:38:29;;;;;;;30.73;14.23;;;;;;;;;;6235078;28;20121;-88
2021/12/10 12:41:31;;;;;;;56.22;22.70;;;;;;;;;;6234367;28;20028;-88
2021/12/10 12:44:35;;;;;;;32.05;15.30;;;;;;;;;;6237261;28;20025;-88
2021/12/10 12:47:36;;;;;;;29.90;15.02;;;;;;;;;;6236118;28;20389;-89
2021/12/10 12:50:39;;;;;;;31.90;17.00;;;;;;;;;;6242005;28;20077;-89
2021/12/10 12:53:39;;;;;;;30.30;18.15;;;;;;;;;;6246162;28;20026;-89
2021/12/10 12:56:40;;;;;;;37.53;18.42;;;;;;;;;;6243287;28;20397;-89
2021/12/10 12:59:40;;;;;;;30.27;16.80;;;;;;;;;;6237938;28;20363;-89
2021/12/10 13:02:40;;;;;;;32.92;15.75;;;;;;;;;;6244356;28;20028;-89
2021/12/10 13:05:55;;;;;;;26.27;13.80;;;;;;;;;;6234310;28;20026;-89
2021/12/10 13:09:01;;;;;;;29.02;12.63;;;;;;;;;;6232584;28;20021;-89
2021/12/10 13:15:06;;;;;;;37.33;15.02;;;;;;;;;;6232990;28;20180;-89
2021/12/10 13:18:08;;;;;;;30.83;13.65;;;;;;;;;;6247651;28;20524;-88
2021/12/10 13:21:09;;;;;;;32.13;14.77;;;;;;;;;;6233210;28;20033;-87
2021/12/10 13:24:10;;;;;;;26.08;12.88;;;;;;;;;;6237616;28;20029;-88
2021/12/10 13:27:11;;;;;;;28.50;14.32;;;;;;;;;;6246678;28;20034;-87
2021/12/10 13:30:14;;;;;;;32.67;14.57;;;;;;;;;;6239925;28;20025;-87
2021/12/10 13:33:18;;;;;;;27.17;13.40;;;;;;;;;;6238156;28;20018;-87
2021/12/10 13:36:19;;;;;;;31.52;13.23;;;;;;;;;;6235631;28;20033;-87
2021/12/10 13:39:20;;;;;;;23.33;12.40;;;;;;;;;;6247964;28;20393;-87
2021/12/10 13:42:20;;;;;;;31.23;16.52;;;;;;;;;;6242638;28;20025;-86
2021/12/10 13:45:22;;;;;;;28.52;16.40;;;;;;;;;;6236956;28;20029;-87
2021/12/10 13:48:36;;;;;;;45.17;22.75;;;;;;;;;;6246294;28;20211;-87
2021/12/10 13:51:42;;;;;;;50.67;23.85;;;;;;;;;;6233881;28;20236;-87
2021/12/10 13:54:44;;;;;;;54.55;25.77;;;;;;;;;;6238537;28;20048;-87
2021/12/10 13:57:44;;;;;;;;;;;;;;;;;;6238409;28;20120;-88
2021/12/10 14:00:49;;;;;;;43.22;20.33;;;;;;;;;;6233165;28;19910;-88
2021/12/10 14:03:49;;;;;;;28.92;14.27;;;;;;;;;;6235126;28;20068;-87
2021/12/10 14:06:55;;;;;;;27.27;13.90;;;;;;;;;;6257265;28;20017;-89
2021/12/10 14:09:57;;;;;;;32.90;16.60;;;;;;;;;;6243384;28;20148;-90
2021/12/10 14:12:59;;;;;;;25.23;10.90;;;;;;;;;;6249880;28;20053;-89
2021/12/10 14:16:05;;;;;;;27.02;14.50;;;;;;;;;;6242556;28;20095;-89
2021/12/10 14:19:05;;;;;;;34.90;20.98;;;;;;;;;;6245662;28;20026;-89
2021/12/10 14:22:08;;;;;;;30.60;17.77;;;;;;;;;;6227077;28;20397;-89
2021/12/10 14:25:22;;;;;;;37.80;20.05;;;;;;;;;;6247643;28;20037;-89
2021/12/10 14:28:41;;;;;;;34.92;18.25;;;;;;;;;;6243954;28;20041;-89
2021/12/10 14:31:47;;;;;;;26.52;15.38;;;;;;;;;;6235676;28;20087;-89
2021/12/10 14:35:20;;;;;;;30.98;16.02;;;;;;;;;;6238083;28;20038;-89
2021/12/10 14:38:29;;;;;;;33.53;17.55;;;;;;;;;;6235305;28;20401;-89
2021/12/10 14:41:31;;;;;;;;;;;;;;;;;;6234821;28;20051;-89
2021/12/10 14:44:34;;;;;;;59.45;32.58;;;;;;;;;;6238861;28;19916;-90
2021/12/10 14:47:34;;;;;;;89.78;44.33;;;;;;;;;;6235590;28;20474;-90
2021/12/10 14:50:35;;;;;;;94.38;49.60;;;;;;;;;;6235732;28;20095;-90
2021/12/10 14:53:35;;;;;;;58.92;33.40;;;;;;;;;;6240050;28;20533;-90
2021/12/10 14:56:40;;;;;;;83.82;41.85;;;;;;;;;;6251794;28;20017;-90
2021/12/10 14:59:41;;;;;;;69.03;34.83;;;;;;;;;;6236550;28;20029;-90
2021/12/10 15:02:41;;;;;;;52.55;27.02;;;;;;;;;;6233869;28;20148;-90
2021/12/10 15:06:00;;;;;;;47.88;23.33;;;;;;;;;;6238729;28;20025;-91
2021/12/10 15:09:06;;;;;;;48.30;24.27;;;;;;;;;;6234783;28;20490;-90
2021/12/10 15:12:09;;;;;;;33.55;18.88;;;;;;;;;;6237401;28;20021;-90
2021/12/10 15:15:10;;;;;;;60.08;27.45;;;;;;;;;;6239334;28;20021;-90
2021/12/10 15:18:46;;;;;;;51.63;27.52;;;;;;;;;;6240120;28;20022;-91
2021/12/10 15:21:48;;;;;;;67.70;31.65;;;;;;;;;;6196079;28;20549;-91
2021/12/10 15:24:52;;;;;;;43.42;22.77;;;;;;;;;;6238600;28;20048;-90
2021/12/10 15:27:55;;;;;;;48.40;24.77;;;;;;;;;;6237293;28;20477;-91
2021/12/10 15:31:00;;;;;;;48.22;21.08;;;;;;;;;;6235052;28;20041;-91
2021/12/10 15:34:00;;;;;;;38.65;20.73;;;;;;;;;;6237739;28;20117;-91
2021/12/10 15:37:02;;;;;;;45.13;24.90;;;;;;;;;;6234702;28;20029;-91
2021/12/10 15:40:23;;;;;;;51.42;26.33;;;;;;;;;;6238795;28;20076;-91
2021/12/10 15:43:26;;;;;;;50.78;25.50;;;;;;;;;;6235237;28;20057;-91
2021/12/10 15:46:29;;;;;;;42.28;22.73;;;;;;;;;;6237755;28;20049;-91
2021/12/10 15:49:30;;;;;;;46.22;24.20;;;;;;;;;;6239438;28;20061;-91
2021/12/10 15:52:30;;;;;;;29.17;18.20;;;;;;;;;;6245048;28;20161;-91
2021/12/10 15:55:31;;;;;;;55.22;27.70;;;;;;;;;;6239273;28;20025;-90
2021/12/10 15:58:33;;;;;;;58.30;30.88;;;;;;;;;;6259705;28;20036;-91
2021/12/10 16:01:35;;;;;;;55.95;27.90;;;;;;;;;;6244801;28;20025;-91
2021/12/10 16:04:37;;;;;;;66.25;32.80;;;;;;;;;;6247237;28;20017;-91
2021/12/10 16:07:42;;;;;;;60.03;29.92;;;;;;;;;;6241719;28;20044;-91
2021/12/10 16:10:45;;;;;;;60.03;28.73;;;;;;;;;;6242970;28;20020;-91
2021/12/10 16:13:48;;;;;;;42.08;22.55;;;;;;;;;;6240132;28;20014;-91
2021/12/10 16:16:51;;;;;;;47.92;24.30;;;;;;;;;;6241595;28;20028;-91
2021/12/10 16:19:53;;;;;;;49.58;24.45;;;;;;;;;;6240840;28;20020;-91
2021/12/10 16:22:55;;;;;;;48.55;21.25;;;;;;;;;;6239934;28;20426;-91
2021/12/10 16:25:57;;;;;;;53.63;22.35;;;;;;;;;;6244337;28;20700;-91
2021/12/10 16:29:01;;;;;;;61.83;25.67;;;;;;;;;;6238613;28;20113;-91
2021/12/10 16:32:04;;;;;;;104.15;41.30;;;;;;;;;;6245492;28;20060;-91
2021/12/10 16:35:07;;;;;;;75.63;32.53;;;;;;;;;;6243089;28;20044;-91
2021/12/10 16:38:11;;;;;;;91.68;37.22;;;;;;;;;;6240994;28;20029;-90
2021/12/10 16:41:16;;;;;;;88.45;37.20;;;;;;;;;;6238823;28;20021;-90
2021/12/10 16:44:17;;;;;;;75.55;36.20;;;;;;;;;;6237030;28;20045;-90
2021/12/10 16:47:23;;;;;;;99.25;44.47;;;;;;;;;;6238188;28;20021;-89
2021/12/10 16:50:26;;;;;;;123.47;53.60;;;;;;;;;;6240838;28;20380;-89
2021/12/10 16:53:41;;;;;;;132.25;58.78;;;;;;;;;;6235787;28;20014;-89
2021/12/10 16:56:43;;;;;;;154.45;76.35;;;;;;;;;;6243314;28;20260;-89
2021/12/10 16:59:44;;;;;;;130.10;62.17;;;;;;;;;;6244516;28;20039;-89
2021/12/10 17:02:46;;;;;;;134.67;62.50;;;;;;;;;;6232267;28;20030;-89
2021/12/10 17:05:46;;;;;;;;;;;;;;;;;;6232931;28;20018;-89
2021/12/10 17:08:49;;;;;;;170.30;74.17;;;;;;;;;;6240444;28;19909;-89
2021/12/10 17:11:52;;;;;;;174.05;77.50;;;;;;;;;;6242614;28;20362;-88
2021/12/10 17:14:57;;;;;;;193.07;84.57;;;;;;;;;;6240269;28;20029;-89
2021/12/10 17:17:59;;;;;;;177.15;81.45;;;;;;;;;;6238770;28;20057;-88
2021/12/10 17:21:05;;;;;;;192.50;84.78;;;;;;;;;;6236226;28;20033;-88
2021/12/10 17:24:07;;;;;;;193.15;84.97;;;;;;;;;;6240230;28;20041;-88
2021/12/10 17:27:13;;;;;;;167.50;77.32;;;;;;;;;;6238288;28;20048;-88
2021/12/10 17:30:13;;;;;;;180.57;80.20;;;;;;;;;;6240862;28;20024;-87
2021/12/10 17:33:25;;;;;;;165.98;75.40;;;;;;;;;;6232880;28;20014;-87
2021/12/10 17:36:34;;;;;;;167.18;77.38;;;;;;;;;;6237157;28;20026;-87
2021/12/10 17:39:40;;;;;;;180.98;80.32;;;;;;;;;;6244457;28;20022;-87
2021/12/10 17:42:41;;;;;;;168.85;79.88;;;;;;;;;;6240330;28;20052;-87
2021/12/10 17:45:56;;;;;;;159.88;72.35;;;;;;;;;;6237740;28;20047;-87
2021/12/10 17:49:00;;;;;;;173.18;81.53;;;;;;;;;;6238033;28;20109;-87
2021/12/10 17:52:01;;;;;;;177.18;79.80;;;;;;;;;;6242885;28;20568;-86
2021/12/10 17:55:05;;;;;;;155.55;74.40;;;;;;;;;;6241008;28;20017;-86
2021/12/10 17:58:12;;;;;;;159.15;74.28;;;;;;;;;;6243403;28;20021;-86
2021/12/10 18:01:14;;;;;;;183.30;81.70;;;;;;;;;;6238895;28;20112;-86